Time;durP1;ratioP1;P1;durP2;ratioP2;P2;SDS_P1;SDS_P2;PMS_P1;PMS_P2;Temp;Humidity;BMP_temperature;BMP_pressure;BME280_temperature;BME280_humidity;BME280_pressure;Samples;Min_cycle;Max_cycle;Signal;HPM_P1;HPM_P2
2022/11/17 00:00:26;;;;;;;16.55;12.88;;;7.90;99.90;;;;;;4988449;28;20057;-57
2022/11/17 00:02:52;;;;;;;15.40;11.90;;;8.00;99.90;;;;;;5005040;28;20099;-56
2022/11/17 00:05:18;;;;;;;16.23;12.48;;;8.00;99.90;;;;;;5003920;28;20045;-56
2022/11/17 00:07:44;;;;;;;14.75;12.05;;;7.90;99.90;;;;;;5003827;28;20049;-57
2022/11/17 00:10:12;;;;;;;14.23;12.23;;;7.90;99.90;;;;;;5005584;28;20042;-57
2022/11/17 00:15:22;;;;;;;14.27;11.85;;;7.80;99.90;;;;;;5005048;28;20042;-56
2022/11/17 00:17:48;;;;;;;15.02;12.15;;;7.90;99.90;;;;;;5005330;28;20175;-58
2022/11/17 00:23:00;;;;;;;14.52;12.18;;;7.70;99.90;;;;;;5005172;28;20081;-56
2022/11/17 00:25:25;;;;;;;13.70;11.13;;;7.90;99.90;;;;;;4987601;28;20156;-56
2022/11/17 00:27:51;;;;;;;14.82;12.35;;;7.80;99.90;;;;;;5005224;28;20572;-57
2022/11/17 00:35:52;;;;;;;14.65;12.35;;;7.70;99.90;;;;;;5004346;28;20077;-56
2022/11/17 00:38:18;;;;;;;14.80;12.52;;;7.70;99.90;;;;;;5004444;28;20054;-55
2022/11/17 00:40:43;;;;;;;14.95;11.80;;;7.70;99.90;;;;;;5004920;28;20049;-56
2022/11/17 00:43:09;;;;;;;13.90;11.40;;;7.60;99.90;;;;;;5003912;28;20038;-56
2022/11/17 00:45:34;;;;;;;13.13;11.52;;;7.50;99.90;;;;;;5005091;28;20042;-56
2022/11/17 00:48:00;;;;;;;15.48;13.00;;;7.50;99.90;;;;;;5005639;28;20474;-57
2022/11/17 00:50:25;;;;;;;13.90;12.10;;;7.40;99.90;;;;;;5003876;28;20046;-57
2022/11/17 00:52:51;;;;;;;15.02;12.13;;;7.50;99.90;;;;;;5005450;28;20417;-56
2022/11/17 00:55:17;;;;;;;13.13;11.70;;;7.60;99.90;;;;;;5005148;28;20381;-56
2022/11/17 00:57:42;;;;;;;15.98;11.82;;;7.40;99.90;;;;;;5005323;28;20461;-57
2022/11/17 01:00:08;;;;;;;12.68;11.38;;;7.50;99.90;;;;;;4986296;28;20042;-56
2022/11/17 01:02:34;;;;;;;14.85;12.02;;;7.40;99.90;;;;;;5004730;28;20161;-55
2022/11/17 01:05:00;;;;;;;13.45;11.85;;;7.30;99.90;;;;;;5003784;28;20536;-57
2022/11/17 01:07:25;;;;;;;13.15;11.05;;;7.50;99.90;;;;;;5003935;28;20123;-57
2022/11/17 01:09:51;;;;;;;12.35;11.02;;;7.30;99.90;;;;;;5004157;28;20141;-57
2022/11/17 01:12:16;;;;;;;13.05;11.43;;;7.30;99.90;;;;;;5005365;28;20108;-57
2022/11/17 01:14:42;;;;;;;13.25;11.52;;;7.40;99.90;;;;;;5005109;28;20088;-56
2022/11/17 01:17:08;;;;;;;12.70;11.05;;;7.30;99.90;;;;;;5004756;28;20103;-56
2022/11/17 01:19:33;;;;;;;14.05;11.25;;;7.30;99.90;;;;;;5003489;28;20042;-56
2022/11/17 01:21:59;;;;;;;13.80;11.55;;;7.40;99.90;;;;;;5002423;28;20046;-56
2022/11/17 01:24:24;;;;;;;15.13;11.43;;;7.30;99.90;;;;;;5003623;28;20595;-56
2022/11/17 01:26:50;;;;;;;13.38;10.93;;;7.40;99.90;;;;;;5003182;28;20087;-56
2022/11/17 01:29:17;;;;;;;13.20;10.82;;;7.60;99.90;;;;;;4986178;28;20125;-58
2022/11/17 01:31:43;;;;;;;13.75;11.20;;;7.30;99.90;;;;;;4985853;28;20053;-56
2022/11/17 01:34:09;;;;;;;13.57;10.80;;;7.40;99.90;;;;;;5003518;28;20046;-56
2022/11/17 01:39:28;;;;;;;12.77;10.65;;;7.20;99.90;;;;;;5003754;28;20045;-56
2022/11/17 01:41:54;;;;;;;15.43;10.38;;;7.20;99.90;;;;;;5002832;28;20072;-56
2022/11/17 01:44:53;;;;;;;14.02;10.60;;;7.40;99.90;;;;;;5003841;28;20129;-56
2022/11/17 01:47:41;;;;;;;13.02;10.20;;;7.50;99.90;;;;;;5003215;28;20053;-56
2022/11/17 01:50:30;;;;;;;13.18;10.55;;;7.40;99.90;;;;;;5004306;28;20041;-56
2022/11/17 01:52:59;;;;;;;13.80;10.38;;;7.20;99.90;;;;;;5004218;28;20092;-57
2022/11/17 01:55:31;;;;;;;14.15;10.15;;;7.30;99.90;;;;;;5004618;28;20045;-57
2022/11/17 01:58:18;;;;;;;12.35;7.85;;;7.40;99.90;;;;;;4985717;28;20075;-56
2022/11/17 02:00:45;;;;;;;11.10;9.90;;;7.40;99.90;;;;;;5004810;28;20417;-56
2022/11/17 02:03:11;;;;;;;12.23;9.95;;;7.40;99.90;;;;;;5003475;28;20049;-54
2022/11/17 02:06:08;;;;;;;11.85;9.80;;;7.20;99.90;;;;;;5002427;28;20049;-57
2022/11/17 02:08:36;;;;;;;14.60;10.32;;;7.20;99.90;;;;;;4983760;28;20070;-56
2022/11/17 02:11:07;;;;;;;13.05;10.63;;;7.40;99.90;;;;;;4984266;28;20054;-57
2022/11/17 02:13:34;;;;;;;12.38;9.95;;;7.30;99.90;;;;;;4984386;28;20104;-57
2022/11/17 02:15:59;;;;;;;13.43;9.70;;;7.50;99.90;;;;;;5059866;23;20072;-56
2022/11/17 02:18:28;;;;;;;15.30;10.35;;;7.40;99.90;;;;;;4995626;28;20399;-56
2022/11/17 02:20:56;;;;;;;12.75;10.25;;;7.20;99.90;;;;;;5021222;28;20050;-54
2022/11/17 02:24:01;;;;;;;14.05;10.30;;;7.30;99.90;;;;;;5022360;28;20045;-55
2022/11/17 02:26:48;;;;;;;11.95;9.40;;;6.50;99.90;;;;;;5022173;28;20069;-56
2022/11/17 02:29:33;;;;;;;15.93;11.00;;;7.60;99.90;;;;;;5022724;28;20053;-56
2022/11/17 02:32:06;;;;;;;11.57;10.15;;;7.30;99.90;;;;;;5022808;28;20049;-56
2022/11/17 02:34:44;;;;;;;12.43;10.20;;;7.40;99.90;;;;;;5022234;28;20120;-55
2022/11/17 02:37:13;;;;;;;11.88;8.75;;;7.30;99.90;;;;;;5021014;28;20051;-56
2022/11/17 02:39:52;;;;;;;13.80;10.13;;;7.40;99.90;;;;;;5021914;28;20446;-56
2022/11/17 02:45:34;;;;;;;10.38;8.88;;;7.50;99.90;;;;;;5004989;28;20115;-52
2022/11/17 02:48:07;;;;;;;11.50;10.05;;;7.50;99.90;;;;;;5022218;28;20045;-56
2022/11/17 02:50:34;;;;;;;11.90;8.68;;;7.70;99.90;;;;;;5003526;28;20162;-54
2022/11/17 02:53:00;;;;;;;12.30;9.73;;;7.40;99.90;;;;;;5020911;28;20554;-56
2022/11/17 02:55:26;;;;;;;13.25;10.20;;;7.50;99.90;;;;;;5021413;28;20045;-55
2022/11/17 02:57:52;;;;;;;13.43;10.80;;;7.30;99.90;;;;;;5021213;28;20102;-55
2022/11/17 03:00:19;;;;;;;12.57;10.98;;;7.40;99.90;;;;;;5021928;28;20046;-55
2022/11/17 03:03:08;;;;;;;11.68;10.52;;;7.40;99.90;;;;;;5022247;28;20048;-55
2022/11/17 03:05:46;;;;;;;10.45;8.88;;;7.20;99.90;;;;;;5020531;28;20045;-56
2022/11/17 03:08:29;;;;;;;11.70;9.55;;;7.40;99.90;;;;;;5021830;28;20080;-56
2022/11/17 03:11:05;;;;;;;11.52;10.38;;;7.20;99.90;;;;;;5022065;28;20492;-56
2022/11/17 03:13:39;;;;;;;10.88;9.77;;;7.20;99.90;;;;;;5021575;28;20080;-56
2022/11/17 03:16:08;;;;;;;12.55;10.50;;;7.30;99.90;;;;;;5020437;28;20749;-56
2022/11/17 03:18:45;;;;;;;11.25;10.15;;;7.20;99.90;;;;;;5021235;28;20049;-56
2022/11/17 03:21:34;;;;;;;10.48;9.38;;;7.30;99.90;;;;;;5020928;28;20083;-56
2022/11/17 03:24:22;;;;;;;12.23;10.95;;;7.40;99.90;;;;;;5021833;28;20099;-55
2022/11/17 03:26:55;;;;;;;12.80;10.63;;;7.10;99.90;;;;;;5020994;28;20049;-57
2022/11/17 03:29:24;;;;;;;13.00;10.65;;;7.20;99.90;;;;;;5021557;28;20412;-56
2022/11/17 03:31:55;;;;;;;12.30;10.98;;;7.10;99.90;;;;;;5021109;28;20133;-56
2022/11/17 03:34:23;;;;;;;12.43;11.13;;;7.10;99.90;;;;;;5019997;28;20045;-56
2022/11/17 03:36:54;;;;;;;12.88;11.55;;;7.10;99.90;;;;;;5019857;28;20042;-56
2022/11/17 03:39:31;;;;;;;12.70;11.40;;;7.00;99.90;;;;;;5024446;28;20046;-56
2022/11/17 03:42:06;;;;;;;13.15;11.85;;;7.10;99.90;;;;;;5008410;28;20045;-56
2022/11/17 03:44:35;;;;;;;13.15;11.75;;;7.20;99.90;;;;;;5025003;28;20514;-56
2022/11/17 03:47:03;;;;;;;13.77;12.32;;;7.10;99.90;;;;;;5024380;28;20056;-55
2022/11/17 03:49:32;;;;;;;13.75;12.27;;;7.10;99.90;;;;;;5024982;28;20068;-56
2022/11/17 03:51:58;;;;;;;14.80;12.60;;;7.30;99.90;;;;;;5006709;28;20559;-56
2022/11/17 03:54:24;;;;;;;14.63;13.13;;;7.10;99.90;;;;;;5006749;28;20128;-57
2022/11/17 03:57:16;;;;;;;14.13;12.73;;;6.80;99.90;;;;;;5024948;28;20225;-55
2022/11/17 04:00:01;;;;;;;14.68;13.18;;;7.00;99.90;;;;;;4997864;28;20057;-57
2022/11/17 04:02:27;;;;;;;13.95;12.52;;;6.80;99.90;;;;;;5025487;28;20384;-57
2022/11/17 04:05:05;;;;;;;14.30;12.10;;;6.70;99.90;;;;;;5024341;28;20041;-56
2022/11/17 04:07:36;;;;;;;14.68;13.18;;;6.70;99.90;;;;;;5024702;28;20511;-57
2022/11/17 04:10:04;;;;;;;16.17;13.23;;;6.80;99.90;;;;;;5025248;28;20059;-56
2022/11/17 04:17:58;;;;;;;14.93;13.40;;;6.70;99.90;;;;;;5024688;28;20049;-58
2022/11/17 04:20:24;;;;;;;15.05;12.98;;;6.70;99.90;;;;;;5023960;28;20038;-56
2022/11/17 04:23:05;;;;;;;15.13;13.30;;;6.80;99.90;;;;;;5024662;28;20049;-57
2022/11/17 04:28:36;;;;;;;14.57;13.07;;;6.80;99.90;;;;;;5025253;28;20063;-56
2022/11/17 04:31:19;;;;;;;14.88;13.27;;;6.70;99.90;;;;;;5006540;28;20476;-56
2022/11/17 04:33:46;;;;;;;14.60;12.80;;;6.80;99.90;;;;;;5024320;28;20041;-58
2022/11/17 04:36:16;;;;;;;14.60;12.80;;;6.50;99.90;;;;;;5022550;28;20111;-57
2022/11/17 04:38:44;;;;;;;13.55;12.25;;;6.70;99.90;;;;;;5024217;28;20104;-57
2022/11/17 04:43:56;;;;;;;14.73;13.20;;;6.50;99.90;;;;;;5025349;28;20120;-57
2022/11/17 04:46:22;;;;;;;14.23;12.82;;;7.20;99.90;;;;;;5023761;28;20042;-57
2022/11/17 04:48:48;;;;;;;13.60;12.20;;;6.40;99.90;;;;;;5024172;28;20052;-57
2022/11/17 04:51:15;;;;;;;14.23;12.80;;;6.40;99.90;;;;;;5022148;28;20049;-56
2022/11/17 04:53:42;;;;;;;14.82;12.85;;;6.40;99.90;;;;;;5023992;28;20051;-57
2022/11/17 04:56:08;;;;;;;14.65;13.25;;;6.60;99.90;;;;;;5024096;28;20053;-56
2022/11/17 04:58:34;;;;;;;13.25;11.95;;;6.40;99.90;;;;;;5023062;28;20141;-54
2022/11/17 05:01:21;;;;;;;16.35;14.75;;;6.90;99.90;;;;;;5024139;28;20124;-56
2022/11/17 05:03:46;;;;;;;14.00;12.50;;;6.40;99.90;;;;;;5005848;28;20045;-57
2022/11/17 05:06:18;;;;;;;15.30;13.77;;;6.50;99.90;;;;;;5021933;28;20064;-57
2022/11/17 05:08:44;;;;;;;16.13;13.98;;;6.50;99.90;;;;;;5023493;28;20061;-57
2022/11/17 05:13:56;;;;;;;14.80;13.30;;;6.50;99.90;;;;;;5024237;28;20125;-54
2022/11/17 05:19:09;;;;;;;;;;;6.30;99.90;;;;;;5024415;28;20408;-58
2022/11/17 05:21:35;;;;;;;14.23;12.77;;;6.20;99.90;;;;;;5023010;28;19975;-58
2022/11/17 05:24:00;;;;;;;14.70;11.93;;;6.50;99.90;;;;;;5022555;28;20107;-54
2022/11/17 05:26:33;;;;;;;13.80;12.40;;;6.50;99.90;;;;;;5021768;28;20057;-57
2022/11/17 05:29:00;;;;;;;12.40;10.90;;;6.20;99.90;;;;;;5024399;28;20041;-56
2022/11/17 05:31:27;;;;;;;12.40;11.20;;;6.40;99.90;;;;;;5006124;28;20052;-57
2022/11/17 05:33:53;;;;;;;11.18;10.02;;;6.30;99.90;;;;;;5023024;28;20508;-57
2022/11/17 05:36:20;;;;;;;13.45;12.05;;;6.30;99.90;;;;;;5022506;28;20042;-57
2022/11/17 05:38:47;;;;;;;11.95;10.75;;;6.20;99.90;;;;;;5023605;28;20136;-57
2022/11/17 05:41:13;;;;;;;12.32;11.02;;;6.40;99.90;;;;;;5005539;28;20053;-57
2022/11/17 05:43:39;;;;;;;11.82;10.18;;;6.20;99.90;;;;;;5022838;28;20412;-55
2022/11/17 05:46:05;;;;;;;11.80;9.88;;;6.40;99.90;;;;;;5023089;28;20064;-55
2022/11/17 05:48:32;;;;;;;11.48;10.20;;;6.10;99.90;;;;;;5023264;28;20107;-57
2022/11/17 05:51:01;;;;;;;12.15;10.88;;;6.30;99.90;;;;;;5022464;28;20053;-56
2022/11/17 05:53:28;;;;;;;10.75;9.25;;;6.10;99.90;;;;;;5023157;28;20046;-57
2022/11/17 05:56:13;;;;;;;11.15;9.95;;;6.10;99.90;;;;;;5023060;28;20161;-55
2022/11/17 05:58:42;;;;;;;11.23;9.52;;;6.30;99.90;;;;;;5022918;28;20048;-52
2022/11/17 06:01:10;;;;;;;11.85;10.15;;;6.30;99.90;;;;;;5023484;28;20049;-56
2022/11/17 06:03:40;;;;;;;14.30;9.48;;;6.30;99.90;;;;;;5023314;28;20088;-57
2022/11/17 06:06:08;;;;;;;10.40;9.20;;;6.10;99.90;;;;;;5003656;28;20504;-58
2022/11/17 06:08:35;;;;;;;9.90;8.88;;;6.00;99.90;;;;;;5023490;28;20046;-57
2022/11/17 06:11:01;;;;;;;10.88;9.77;;;6.20;99.90;;;;;;5022587;28;20049;-57
2022/11/17 06:13:27;;;;;;;10.70;9.55;;;6.20;99.90;;;;;;5021938;28;20045;-53
2022/11/17 06:15:59;;;;;;;9.93;8.88;;;6.40;99.90;;;;;;5022604;28;20132;-57
2022/11/17 06:18:36;;;;;;;10.52;9.02;;;6.20;99.90;;;;;;5023085;28;20437;-55
2022/11/17 06:21:03;;;;;;;11.88;9.50;;;6.20;99.90;;;;;;5003743;28;20111;-56
2022/11/17 06:23:30;;;;;;;10.65;9.07;;;6.20;99.90;;;;;;5023163;28;20446;-57
2022/11/17 06:25:59;;;;;;;10.43;9.32;;;6.10;99.90;;;;;;5004440;28;20050;-57
2022/11/17 06:28:28;;;;;;;10.23;9.13;;;6.20;99.90;;;;;;5021727;28;20050;-57
2022/11/17 06:30:57;;;;;;;11.32;9.60;;;5.90;99.90;;;;;;5004281;28;20045;-56
2022/11/17 06:33:24;;;;;;;9.65;7.60;;;6.30;99.90;;;;;;5022000;28;20154;-55
2022/11/17 06:35:50;;;;;;;11.85;9.68;;;6.50;99.90;;;;;;5020463;28;20048;-56
2022/11/17 06:38:16;;;;;;;9.65;8.65;;;6.10;99.90;;;;;;5022324;28;20041;-56
2022/11/17 06:40:41;;;;;;;11.07;9.77;;;6.20;99.90;;;;;;5004466;28;20132;-56
2022/11/17 06:43:08;;;;;;;11.85;9.43;;;5.90;99.90;;;;;;5022334;28;20095;-54
2022/11/17 06:45:46;;;;;;;10.25;8.10;;;6.00;99.90;;;;;;5022089;28;20439;-57
2022/11/17 06:48:15;;;;;;;11.05;9.10;;;6.00;99.90;;;;;;5004282;28;20056;-56
2022/11/17 06:50:41;;;;;;;11.10;9.38;;;5.90;99.90;;;;;;5021510;28;20128;-56
2022/11/17 06:53:09;;;;;;;12.13;9.32;;;6.10;99.90;;;;;;5021540;28;20042;-58
2022/11/17 06:55:35;;;;;;;11.52;9.43;;;5.90;99.90;;;;;;5022450;28;20096;-57
2022/11/17 06:58:07;;;;;;;11.48;9.13;;;6.00;99.90;;;;;;5022311;28;20325;-57
2022/11/17 07:00:34;;;;;;;10.48;9.07;;;6.10;99.90;;;;;;5021743;28;20052;-57
2022/11/17 07:03:05;;;;;;;11.48;9.45;;;5.90;99.90;;;;;;5021930;28;20042;-56
2022/11/17 07:05:32;;;;;;;11.20;9.20;;;6.00;99.90;;;;;;5020165;28;20466;-56
2022/11/17 07:08:04;;;;;;;10.13;8.07;;;6.00;99.90;;;;;;5021056;28;20243;-57
2022/11/17 07:10:31;;;;;;;9.80;8.15;;;6.20;99.90;;;;;;5021682;28;20077;-57
2022/11/17 07:12:57;;;;;;;10.18;8.80;;;6.10;99.90;;;;;;5004775;28;20049;-57
2022/11/17 07:15:23;;;;;;;9.93;7.97;;;6.10;99.90;;;;;;5024914;28;20049;-57
2022/11/17 07:17:49;;;;;;;9.63;7.75;;;5.90;99.90;;;;;;5026077;28;20085;-57
2022/11/17 07:20:15;;;;;;;9.23;7.68;;;6.10;99.90;;;;;;5007892;28;20562;-54
2022/11/17 07:22:41;;;;;;;8.23;7.05;;;6.00;99.90;;;;;;5025197;28;20137;-57
2022/11/17 07:25:08;;;;;;;7.55;5.80;;;6.90;99.90;;;;;;5025471;28;20116;-57
2022/11/17 07:27:33;;;;;;;9.90;6.80;;;6.10;99.90;;;;;;5007744;28;20182;-57
2022/11/17 07:29:59;;;;;;;9.00;7.18;;;6.00;99.90;;;;;;5025739;28;20045;-57
2022/11/17 07:32:25;;;;;;;8.50;6.55;;;6.00;99.90;;;;;;5025462;28;20048;-57
2022/11/17 07:34:50;;;;;;;6.25;5.60;;;6.50;99.90;;;;;;5023775;28;20129;-56
2022/11/17 07:37:16;;;;;;;7.40;6.35;;;6.00;99.90;;;;;;5024123;28;20049;-54
2022/11/17 07:39:42;;;;;;;8.02;6.50;;;6.70;99.90;;;;;;5025272;28;20124;-56
2022/11/17 07:42:07;;;;;;;8.23;6.38;;;6.00;99.90;;;;;;5025319;28;20041;-57
2022/11/17 07:44:33;;;;;;;7.70;6.13;;;6.10;99.90;;;;;;5025202;28;20049;-57
2022/11/17 07:46:59;;;;;;;7.85;6.40;;;6.10;99.90;;;;;;5025331;28;20052;-57
2022/11/17 07:49:26;;;;;;;7.40;5.68;;;6.00;99.90;;;;;;5024378;28;20077;-56
2022/11/17 07:51:52;;;;;;;8.00;5.30;;;6.00;99.90;;;;;;5023830;28;20049;-56
2022/11/17 07:54:18;;;;;;;5.65;4.10;;;5.80;99.90;;;;;;5025095;28;20127;-55
2022/11/17 07:56:44;;;;;;;7.13;5.68;;;5.80;99.90;;;;;;5023905;28;20124;-56
2022/11/17 07:59:09;;;;;;;6.60;5.15;;;5.80;99.90;;;;;;5025662;28;20059;-57
2022/11/17 08:01:35;;;;;;;7.57;4.65;;;6.00;99.90;;;;;;5025133;28;20674;-57
2022/11/17 08:04:01;;;;;;;7.50;5.03;;;6.00;99.90;;;;;;5015285;28;20051;-57
2022/11/17 08:06:26;;;;;;;6.00;4.75;;;5.90;99.90;;;;;;5022574;28;20068;-57
2022/11/17 08:08:53;;;;;;;6.22;4.97;;;6.10;99.90;;;;;;5023782;28;20128;-57
2022/11/17 08:11:18;;;;;;;6.93;4.80;;;6.10;99.90;;;;;;5024486;28;20087;-56
2022/11/17 08:13:44;;;;;;;6.38;5.03;;;6.00;99.90;;;;;;5023732;28;20034;-57
2022/11/17 08:16:11;;;;;;;6.10;5.10;;;5.80;99.90;;;;;;5024291;28;20053;-57
2022/11/17 08:18:38;;;;;;;6.70;5.63;;;5.80;99.90;;;;;;5024044;28;20160;-57
2022/11/17 08:21:09;;;;;;;6.82;5.53;;;5.90;99.90;;;;;;5023545;28;20436;-56
2022/11/17 08:23:36;;;;;;;7.10;5.40;;;6.00;99.90;;;;;;5024328;28;20053;-56
2022/11/17 08:26:03;;;;;;;7.38;5.93;;;6.10;99.90;;;;;;5022092;28;20056;-55
2022/11/17 08:28:29;;;;;;;6.97;5.70;;;5.90;99.90;;;;;;5024951;28;20061;-57
2022/11/17 08:30:54;;;;;;;7.45;5.80;;;5.90;99.90;;;;;;5025351;28;20087;-57
2022/11/17 08:33:20;;;;;;;7.25;5.38;;;6.30;99.90;;;;;;5025000;28;20427;-57
2022/11/17 08:35:46;;;;;;;7.00;5.88;;;6.10;99.90;;;;;;5005184;28;20050;-52
2022/11/17 08:38:14;;;;;;;7.22;5.43;;;6.40;99.90;;;;;;5024528;28;20095;-58
2022/11/17 08:40:40;;;;;;;7.18;5.63;;;5.90;99.90;;;;;;5025358;28;20061;-57
2022/11/17 08:43:06;;;;;;;7.72;6.10;;;6.00;99.90;;;;;;5024621;28;20059;-57
2022/11/17 08:45:32;;;;;;;7.90;5.95;;;6.00;99.90;;;;;;5023602;28;20396;-56
2022/11/17 08:47:58;;;;;;;8.00;5.38;;;6.40;99.90;;;;;;5007082;28;20549;-56
2022/11/17 08:50:24;;;;;;;7.47;5.75;;;6.20;99.90;;;;;;5022915;28;20400;-57
2022/11/17 08:52:51;;;;;;;8.07;5.95;;;5.90;99.90;;;;;;5024927;28;20095;-56
2022/11/17 08:55:16;;;;;;;7.60;5.97;;;6.00;99.90;;;;;;5017439;28;20050;-56
2022/11/17 08:57:42;;;;;;;7.57;6.20;;;6.10;99.90;;;;;;5012940;28;20045;-56
2022/11/17 09:00:09;;;;;;;8.60;5.95;;;6.00;99.90;;;;;;5023753;28;20048;-56
2022/11/17 09:02:36;;;;;;;7.80;6.55;;;6.00;99.90;;;;;;5022493;28;20045;-57
2022/11/17 09:05:02;;;;;;;7.95;6.13;;;6.00;99.90;;;;;;5022619;28;20529;-55
2022/11/17 09:07:32;;;;;;;8.90;6.60;;;6.00;99.90;;;;;;5023843;28;20049;-56
2022/11/17 09:09:57;;;;;;;8.65;6.80;;;5.90;99.90;;;;;;5023961;28;20045;-56
2022/11/17 09:12:23;;;;;;;9.40;6.03;;;6.00;99.90;;;;;;5023234;28;20180;-55
2022/11/17 09:14:49;;;;;;;6.60;5.28;;;6.20;99.90;;;;;;5023912;28;20124;-57
2022/11/17 09:17:14;;;;;;;7.72;6.40;;;6.10;99.90;;;;;;5024205;28;20050;-57
2022/11/17 09:19:40;;;;;;;7.97;6.05;;;6.50;99.90;;;;;;5022740;28;20037;-56
2022/11/17 09:22:06;;;;;;;8.20;6.55;;;5.90;99.90;;;;;;5023291;28;20041;-57
2022/11/17 09:24:31;;;;;;;8.05;6.60;;;6.10;99.90;;;;;;5023087;28;20440;-57
2022/11/17 09:26:57;;;;;;;9.85;6.70;;;6.50;99.90;;;;;;5023140;28;20564;-57
2022/11/17 09:29:23;;;;;;;8.55;6.82;;;6.00;99.90;;;;;;5022841;28;20041;-57
2022/11/17 09:31:49;;;;;;;8.02;6.72;;;6.30;99.90;;;;;;5023454;28;20041;-57
2022/11/17 09:34:15;;;;;;;8.85;6.40;;;6.00;99.90;;;;;;5022652;28;20124;-55
2022/11/17 09:36:41;;;;;;;8.82;6.82;;;6.00;99.90;;;;;;5023596;28;20045;-56
2022/11/17 09:39:07;;;;;;;9.18;7.20;;;6.00;99.90;;;;;;5023262;28;20048;-52
2022/11/17 09:41:43;;;;;;;8.27;7.35;;;6.20;99.90;;;;;;5023301;28;20052;-57
2022/11/17 09:44:35;;;;;;;8.60;6.88;;;6.00;99.90;;;;;;5022650;28;20128;-57
2022/11/17 09:47:20;;;;;;;9.05;6.97;;;6.00;99.90;;;;;;5023665;28;20109;-56
2022/11/17 09:49:48;;;;;;;8.73;7.22;;;6.00;99.90;;;;;;5022370;28;20042;-57
2022/11/17 09:52:46;;;;;;;8.52;6.90;;;5.90;99.90;;;;;;5024035;28;20137;-56
2022/11/17 09:55:38;;;;;;;8.43;6.78;;;5.90;99.90;;;;;;5023377;28;20108;-56
2022/11/17 09:58:16;;;;;;;7.90;6.93;;;6.20;99.90;;;;;;5011696;28;20046;-56
2022/11/17 10:00:47;;;;;;;8.00;6.80;;;6.00;99.90;;;;;;5003582;28;20184;-56
2022/11/17 10:03:20;;;;;;;9.32;7.43;;;5.90;99.90;;;;;;5022613;28;20124;-55
2022/11/17 10:05:47;;;;;;;10.18;7.43;;;5.80;99.90;;;;;;5021936;28;20076;-55
2022/11/17 10:08:19;;;;;;;9.27;6.65;;;5.90;99.90;;;;;;5023225;28;20034;-57
2022/11/17 10:10:47;;;;;;;7.75;5.88;;;6.20;99.90;;;;;;5023070;28;20048;-56
2022/11/17 10:13:22;;;;;;;7.75;6.55;;;5.80;99.90;;;;;;5023687;28;20167;-56
2022/11/17 10:16:09;;;;;;;8.63;7.47;;;5.80;99.90;;;;;;5023627;28;20057;-57
2022/11/17 10:18:37;;;;;;;8.73;7.35;;;5.80;99.90;;;;;;5023454;28;20107;-56
2022/11/17 10:21:05;;;;;;;9.55;8.00;;;6.50;99.90;;;;;;5022611;28;20361;-57
2022/11/17 10:23:43;;;;;;;8.32;7.10;;;5.90;99.90;;;;;;5023279;28;20111;-56
2022/11/17 10:26:12;;;;;;;6.53;5.07;;;6.20;99.90;;;;;;5022370;28;20094;-55
2022/11/17 10:28:38;;;;;;;9.00;7.35;;;5.90;99.90;;;;;;5022514;28;20484;-64
2022/11/17 10:31:14;;;;;;;9.05;7.72;;;6.00;99.90;;;;;;5004887;28;20049;-65
2022/11/17 10:33:46;;;;;;;8.13;6.90;;;6.00;99.90;;;;;;5021855;28;20129;-65
2022/11/17 10:36:32;;;;;;;9.10;7.20;;;5.90;99.90;;;;;;5022793;28;20044;-65
2022/11/17 10:38:59;;;;;;;11.05;7.22;;;6.10;99.90;;;;;;5022612;28;20050;-65
2022/11/17 10:41:44;;;;;;;9.30;6.43;;;5.80;99.90;;;;;;5022492;28;20033;-65
2022/11/17 10:44:30;;;;;;;8.95;7.03;;;6.00;99.90;;;;;;5022285;28;20041;-64
2022/11/17 10:46:59;;;;;;;9.95;7.40;;;5.80;99.90;;;;;;5022580;28;20048;-64
2022/11/17 10:49:28;;;;;;;9.85;8.10;;;5.90;99.90;;;;;;5021342;28;20041;-65
2022/11/17 10:52:15;;;;;;;9.77;7.40;;;5.90;99.90;;;;;;5021920;28;20367;-65
2022/11/17 10:54:41;;;;;;;9.48;6.38;;;5.80;99.90;;;;;;5005236;28;20042;-65
2022/11/17 10:57:14;;;;;;;9.43;7.95;;;6.00;99.90;;;;;;5022296;28;20104;-65
2022/11/17 10:59:50;;;;;;;12.85;9.35;;;5.90;99.90;;;;;;5023182;28;20052;-64
2022/11/17 11:02:24;;;;;;;10.77;8.75;;;6.60;99.90;;;;;;5022884;28;20049;-65
2022/11/17 11:05:11;;;;;;;9.77;8.77;;;5.90;99.90;;;;;;5002348;28;20037;-66
2022/11/17 11:07:38;;;;;;;10.45;9.35;;;5.90;99.90;;;;;;4998559;28;20672;-65
2022/11/17 11:10:25;;;;;;;10.43;6.72;;;6.30;99.90;;;;;;5021590;28;20042;-65
2022/11/17 11:12:55;;;;;;;10.98;9.32;;;6.10;99.90;;;;;;5022396;28;20049;-65
2022/11/17 11:15:23;;;;;;;11.45;10.25;;;6.90;99.90;;;;;;5021402;28;20061;-65
2022/11/17 11:17:50;;;;;;;11.05;9.85;;;6.00;99.90;;;;;;5022904;28;20065;-64
2022/11/17 11:20:19;;;;;;;12.07;10.38;;;5.90;99.90;;;;;;5021831;28;20432;-65
2022/11/17 11:23:06;;;;;;;12.52;10.30;;;6.00;99.90;;;;;;5004992;28;20451;-58
2022/11/17 11:25:41;;;;;;;10.50;9.40;;;6.20;99.90;;;;;;5004731;28;20107;-58
2022/11/17 11:28:22;;;;;;;10.68;9.57;;;6.20;99.90;;;;;;5022860;28;20556;-59
2022/11/17 11:31:24;;;;;;;11.95;9.55;;;6.20;99.90;;;;;;5022937;28;20045;-57
2022/11/17 11:33:55;;;;;;;12.70;9.73;;;6.10;99.90;;;;;;5022332;28;20056;-57
2022/11/17 11:36:31;;;;;;;11.38;9.55;;;6.30;99.90;;;;;;5022365;28;20056;-59
2022/11/17 11:39:22;;;;;;;9.85;8.73;;;6.30;99.90;;;;;;5015654;28;20334;-57
2022/11/17 11:42:09;;;;;;;9.55;8.18;;;6.30;99.90;;;;;;5023025;28;20053;-57
2022/11/17 11:44:52;;;;;;;10.57;9.48;;;6.20;99.90;;;;;;5007287;28;20500;-57
2022/11/17 11:47:18;;;;;;;11.30;10.10;;;6.10;99.90;;;;;;5002507;28;20061;-57
2022/11/17 11:49:47;;;;;;;9.55;7.65;;;6.80;99.90;;;;;;5001271;28;20484;-55
2022/11/17 11:52:21;;;;;;;11.48;10.10;;;6.00;99.90;;;;;;5002282;28;20049;-57
2022/11/17 11:55:11;;;;;;;11.85;10.52;;;6.10;99.90;;;;;;5002724;28;20077;-58
2022/11/17 11:57:41;;;;;;;11.70;10.13;;;6.20;99.90;;;;;;5021159;28;20213;-56
2022/11/17 12:00:14;;;;;;;12.55;11.23;;;6.30;99.90;;;;;;5024505;28;20037;-57
2022/11/17 12:02:48;;;;;;;11.05;9.85;;;6.30;99.90;;;;;;5024351;28;20455;-57
2022/11/17 12:05:31;;;;;;;10.82;9.68;;;6.50;99.90;;;;;;5024246;28;20515;-58
2022/11/17 12:08:02;;;;;;;11.43;10.23;;;6.00;99.90;;;;;;5024940;28;20645;-57
2022/11/17 12:10:49;;;;;;;11.60;9.80;;;6.10;99.90;;;;;;5026107;28;20152;-57
2022/11/17 12:13:19;;;;;;;12.45;10.18;;;6.00;99.90;;;;;;5025236;28;20095;-57
2022/11/17 12:15:44;;;;;;;11.15;9.90;;;6.10;99.90;;;;;;5026264;28;20062;-57
2022/11/17 12:18:28;;;;;;;10.70;9.52;;;6.10;99.90;;;;;;5025914;28;20046;-57
2022/11/17 12:20:59;;;;;;;10.82;9.25;;;6.30;99.90;;;;;;5024860;28;20037;-59
2022/11/17 12:23:41;;;;;;;11.50;10.30;;;6.30;99.90;;;;;;5008558;28;20107;-57
2022/11/17 12:26:18;;;;;;;9.98;8.00;;;6.00;99.90;;;;;;5007651;28;20085;-58
2022/11/17 12:28:44;;;;;;;10.30;9.20;;;6.00;99.90;;;;;;5026214;28;20735;-57
2022/11/17 12:32:01;;;;;;;10.07;8.38;;;6.10;99.90;;;;;;5026040;28;20534;-57
2022/11/17 12:34:32;;;;;;;8.20;7.28;;;6.10;99.90;;;;;;4991238;28;20065;-58
2022/11/17 12:37:24;;;;;;;9.73;8.73;;;6.00;99.90;;;;;;5025050;28;20041;-55
2022/11/17 12:40:02;;;;;;;10.10;9.00;;;6.10;99.90;;;;;;5026261;28;20037;-56
2022/11/17 12:42:30;;;;;;;8.52;6.78;;;6.50;99.90;;;;;;5025109;28;20460;-57
2022/11/17 12:44:59;;;;;;;10.10;9.02;;;6.20;99.90;;;;;;5024494;28;20038;-59
2022/11/17 12:47:39;;;;;;;10.63;8.70;;;6.20;99.90;;;;;;5024684;28;20464;-58
2022/11/17 12:50:33;;;;;;;10.30;9.10;;;6.30;99.90;;;;;;5024253;28;20057;-56
2022/11/17 12:53:23;;;;;;;10.90;9.80;;;6.10;99.90;;;;;;5024363;28;20050;-56
2022/11/17 12:56:01;;;;;;;9.80;8.68;;;6.10;99.90;;;;;;5025052;28;20068;-57
2022/11/17 12:58:45;;;;;;;9.27;8.32;;;6.20;99.90;;;;;;5025971;28;20037;-58
2022/11/17 13:01:35;;;;;;;7.05;4.65;;;6.10;99.90;;;;;;5007443;28;20121;-56
2022/11/17 13:04:32;;;;;;;9.45;7.10;;;6.30;99.90;;;;;;5023630;28;20054;-57
2022/11/17 13:07:05;;;;;;;9.85;8.60;;;6.20;99.90;;;;;;4989787;28;20800;-56
2022/11/17 13:09:33;;;;;;;9.75;8.75;;;6.20;99.90;;;;;;5024786;28;20045;-56
2022/11/17 13:12:05;;;;;;;10.73;8.95;;;6.30;99.90;;;;;;5023295;28;20076;-57
2022/11/17 13:14:49;;;;;;;10.55;9.43;;;6.30;99.90;;;;;;5024438;28;20400;-57
2022/11/17 13:17:15;;;;;;;10.38;9.27;;;6.30;99.90;;;;;;5025168;28;20551;-56
2022/11/17 13:19:41;;;;;;;9.38;8.23;;;6.20;99.90;;;;;;5023402;28;20137;-57
2022/11/17 13:22:10;;;;;;;9.20;8.13;;;6.30;99.90;;;;;;5024672;28;20045;-57
2022/11/17 13:24:37;;;;;;;8.85;7.75;;;6.50;99.90;;;;;;5024212;28;20099;-55
2022/11/17 13:27:08;;;;;;;9.38;8.20;;;6.40;99.90;;;;;;5023487;28;20038;-57
2022/11/17 13:29:34;;;;;;;9.40;8.40;;;6.40;99.90;;;;;;5025009;28;20099;-57
2022/11/17 13:32:20;;;;;;;9.15;8.05;;;6.30;99.90;;;;;;5006987;28;20790;-58
2022/11/17 13:34:51;;;;;;;9.43;8.38;;;6.30;99.90;;;;;;5023681;28;20045;-57
2022/11/17 13:37:20;;;;;;;9.70;8.70;;;6.40;99.90;;;;;;5023904;28;20470;-57
2022/11/17 13:40:20;;;;;;;10.02;8.88;;;6.30;99.90;;;;;;5006293;28;20053;-57
2022/11/17 13:42:46;;;;;;;9.27;8.32;;;6.40;99.90;;;;;;5006212;28;20061;-56